Search for airport 
image banner adimage banner adimage banner ad
image banner ad

PA71 - Dwight's Delight

Located in Dushore, United States

ICAO - PA71, IATA -

Data provided by Airmate  

General information

Coordinates: N41°31'15" W76°27'44"
Elevation is 1717 feet MSL.
Magnetic variation is -11° East
View others Airports in Pennsylvania

Operational data

Special qualification required
Current time UTC:
Current local time:
Weather at : KIPT - Williamsport Rgnl ( 49 km )
METAR: KIPT 131854Z 12005KT 10SM SCT038 26/19 A2985 RMK AO2 SLP103 T02610189
TAF: KIPT 131736Z 1318/1418 VRB04KT P6SM SCT020 BKN040 FM132100 15005KT P6SM -SHRA VCTS BKN040CB FM140200 12004KT P6SM SCT050 FM140700 VRB03KT 4SM BR OVC010 FM141300 23006KT P6SM BKN100
View NOTAMs / SUP AIP / TFR affecting this airport [VIEW]
Communications frequencies: [VIEW]

Runways:

RWY identifierQFULength (ft)Width (ft)SurfaceLDA (ft)
07199090GRASS
25199090GRASS

Airport contact information

Address: Dushore United States

Satellite view of PA71